Terminal Aerodrome Forecast
Issued by NWS

Home | Current Version | Previous Version | Text Only | Print | Product List | Glossary On
Versions: 1 2 3 4 5 6 7 8 9 10 11 12 13 14 15 16 17 18 19 20 21 22 23
000
FTUS46 KSTO 270500
TAFSCK
TAF
KSCK 270533Z 2706/2806 VRB03KT 6SM HZ OVC150
     FM270800 VRB03KT 4SM BR OVC150
     FM271000 12003KT 2SM BR OVC100
     FM271400 12005KT 2SM BR VCSH BKN050 OVC100
     FM271800 15005KT 4SM HZ OVC100
     FM272100 VRB04KT P6SM OVC100
     FM280300 VRB04KT 5SM BR BKN250=

USA.gov is the U.S. government's official web portal to all federal, state and local government web resources and services.